Time;durP1;ratioP1;P1;durP2;ratioP2;P2;SDS_P1;SDS_P2;PMS_P1;PMS_P2;Temp;Humidity;BMP_temperature;BMP_pressure;BME280_temperature;BME280_humidity;BME280_pressure;Samples;Min_cycle;Max_cycle;Signal;HPM_P1;HPM_P2
2022/08/21 00:00:41;;;;;;;;;;;;;;;;;;5109171;28;19924;-82
2022/08/21 00:03:10;;;;;;;;;;;;;;;;;;5110672;28;19931;-80
2022/08/21 00:05:41;;;;;;;;;;;;;;;;;;5100626;28;19952;-80
2022/08/21 00:08:08;;;;;;;;;;;;;;;;;;5101271;28;20023;-81
2022/08/21 00:10:35;;;;;;;;;;;;;;;;;;5107437;28;19998;-81
2022/08/21 00:13:05;;;;;;;;;;;;;;;;;;5113476;28;19924;-80
2022/08/21 00:15:33;;;;;;;;;;;;;;;;;;5116657;28;19924;-81
2022/08/21 00:18:03;;;;;;;;;;;;;;;;;;5118198;27;19912;-82
2022/08/21 00:20:31;;;;;;;;;;;;;;;;;;5105710;28;19936;-80
2022/08/21 00:23:01;;;;;;;;;;;;;;;;;;5099298;28;19924;-80
2022/08/21 00:25:28;;;;;;;;;;;;;;;;;;5099861;28;20121;-80
2022/08/21 00:27:58;;;;;;;;;;;;;;;;;;5097016;28;19978;-80
2022/08/21 00:30:29;;;;;;;;;;;;;;;;;;5100730;28;19924;-81
2022/08/21 00:32:59;;;;;;;;;;;;;;;;;;5099800;28;19931;-80
2022/08/21 00:35:27;;;;;;;;;;;;;;;;;;5105492;28;19935;-82
2022/08/21 00:37:59;;;;;;;;;;;;;;;;;;5108442;28;20338;-81
2022/08/21 00:40:31;;;;;;;;;;;;;;;;;;5102252;28;19935;-81
2022/08/21 00:42:58;;;;;;;;;;;;;;;;;;5097274;28;19924;-81
2022/08/21 00:45:25;;;;;;;;;;;;;;;;;;5098661;28;19978;-82
2022/08/21 00:47:51;;;;;;;;;;;;;;;;;;5103600;28;19946;-80
2022/08/21 00:50:20;;;;;;;;;;;;;;;;;;5098235;28;19959;-82
2022/08/21 00:52:50;;;;;;;;;;;;;;;;;;5098688;28;20599;-80
2022/08/21 00:55:18;;;;;;;;;;;;;;;;;;5100333;28;19924;-79
2022/08/21 00:57:46;;;;;;;;;;;;;;;;;;5099990;28;20006;-81
2022/08/21 01:00:15;;;;;;;;;;;;;;;;;;5110878;28;19916;-80
2022/08/21 01:02:42;;;;;;;;;;;;;;;;;;5117555;27;19968;-80
2022/08/21 01:05:09;;;;;;;;;;;;;;;;;;5108948;28;19924;-78
2022/08/21 01:07:35;;;;;;;;;;;;;;;;;;5108478;28;19946;-80
2022/08/21 01:10:02;;;;;;;;;;;;;;;;;;5102223;28;19961;-80
2022/08/21 01:12:33;;;;;;;;;;;;;;;;;;5108011;28;19966;-80
2022/08/21 01:14:59;;;;;;;;;;;;;;;;;;5105871;28;19935;-80
2022/08/21 01:17:27;;;;;;;;;;;;;;;;;;5103241;28;19978;-79
2022/08/21 01:19:54;;;;;;;;;;;;;;;;;;5103103;28;19930;-81
2022/08/21 01:22:22;;;;;;;;;;;;;;;;;;5106496;28;19984;-80
2022/08/21 01:24:52;;;;;;;;;;;;;;;;;;5104724;28;19946;-81
2022/08/21 01:27:20;;;;;;;;;;;;;;;;;;5100677;28;19954;-81
2022/08/21 01:29:51;;;;;;;;;;;;;;;;;;5104745;28;19997;-81
2022/08/21 01:32:18;;;;;;;;;;;;;;;;;;5108433;28;19928;-80
2022/08/21 01:34:48;;;;;;;;;;;;;;;;;;5105985;28;19925;-80
2022/08/21 01:37:15;;;;;;;;;;;;;;;;;;5099630;28;19924;-81
2022/08/21 01:40:02;;;;;;;;;;;;;;;;;;5097515;28;19938;-81
2022/08/21 01:42:32;;;;;;;;;;;;;;;;;;5080597;28;19925;-80
2022/08/21 01:44:58;;;;;;;;;;;;;;;;;;5086214;28;19924;-81
2022/08/21 01:47:25;;;;;;;;;;;;;;;;;;5081310;28;19924;-81
2022/08/21 01:49:52;;;;;;;;;;;;;;;;;;5087901;28;20014;-81
2022/08/21 01:52:20;;;;;;;;;;;;;;;;;;5076966;28;20412;-79
2022/08/21 01:54:46;;;;;;;;;;;;;;;;;;5084233;28;19929;-79
2022/08/21 01:57:13;;;;;;;;;;;;;;;;;;5082941;28;20422;-80
2022/08/21 01:59:41;;;;;;;;;;;;;;;;;;5077862;28;19925;-78
2022/08/21 02:02:11;;;;;;;;;;;;;;;;;;5083117;28;20313;-82
2022/08/21 02:04:37;;;;;;;;;;;;;;;;;;5086728;28;20452;-80
2022/08/21 02:07:04;;;;;;;;;;;;;;;;;;5089811;28;19919;-80
2022/08/21 02:09:31;;;;;;;;;;;;;;;;;;5087583;28;19924;-80
2022/08/21 02:11:58;;;;;;;;;;;;;;;;;;5092457;28;19924;-79
2022/08/21 02:14:24;;;;;;;;;;;;;;;;;;5096733;28;19924;-80
2022/08/21 02:16:52;;;;;;;;;;;;;;;;;;5096655;28;20007;-80
2022/08/21 02:19:19;;;;;;;;;;;;;;;;;;5095577;28;19935;-80
2022/08/21 02:21:45;;;;;;;;;;;;;;;;;;5096164;28;19924;-81
2022/08/21 02:24:12;;;;;;;;;;;;;;;;;;5094076;28;19955;-79
2022/08/21 02:26:42;;;;;;;;;;;;;;;;;;5090993;28;19951;-79
2022/08/21 02:29:09;;;;;;;;;;;;;;;;;;5089608;28;19925;-81
2022/08/21 02:31:35;;;;;;;;;;;;;;;;;;5089993;28;19931;-82
2022/08/21 02:34:03;;;;;;;;;;;;;;;;;;5095630;28;19935;-81
2022/08/21 02:36:32;;;;;;;;;;;;;;;;;;5093506;28;19988;-80
2022/08/21 02:38:59;;;;;;;;;;;;;;;;;;5094165;28;19967;-81
2022/08/21 02:41:26;;;;;;;;;;;;;;;;;;5096162;28;19951;-80
2022/08/21 02:43:52;;;;;;;;;;;;;;;;;;5095558;28;19963;-80
2022/08/21 02:46:20;;;;;;;;;;;;;;;;;;5093363;28;19959;-81
2022/08/21 02:48:47;;;;;;;;;;;;;;;;;;5091003;28;20120;-79
2022/08/21 02:51:17;;;;;;;;;;;;;;;;;;5091873;28;19975;-81
2022/08/21 02:53:44;;;;;;;;;;;;;;;;;;5089295;28;19924;-79
2022/08/21 02:56:12;;;;;;;;;;;;;;;;;;5089367;28;20294;-81
2022/08/21 02:58:40;;;;;;;;;;;;;;;;;;5089536;28;19964;-81
2022/08/21 03:01:10;;;;;;;;;;;;;;;;;;5097647;28;19977;-80
2022/08/21 03:03:36;;;;;;;;;;;;;;;;;;5112958;28;19979;-81
2022/08/21 03:06:03;;;;;;;;;;;;;;;;;;5118478;28;20018;-81
2022/08/21 03:08:31;;;;;;;;;;;;;;;;;;5107035;28;19969;-81
2022/08/21 03:11:00;;;;;;;;;;;;;;;;;;5108539;28;19950;-80
2022/08/21 03:13:27;;;;;;;;;;;;;;;;;;5110666;28;19930;-81
2022/08/21 03:15:56;;;;;;;;;;;;;;;;;;5117310;28;19912;-81
2022/08/21 03:18:23;;;;;;;;;;;;;;;;;;5106097;28;20386;-81
2022/08/21 03:20:52;;;;;;;;;;;;;;;;;;5104942;28;20007;-80
2022/08/21 03:23:19;;;;;;;;;;;;;;;;;;5111152;28;19930;-81
2022/08/21 03:25:49;;;;;;;;;;;;;;;;;;5109385;28;19959;-80
2022/08/21 03:28:16;;;;;;;;;;;;;;;;;;5110107;28;19987;-80
2022/08/21 03:30:44;;;;;;;;;;;;;;;;;;5106439;28;19924;-82
2022/08/21 03:33:10;;;;;;;;;;;;;;;;;;5101960;28;19963;-81
2022/08/21 03:35:37;;;;;;;;;;;;;;;;;;5099183;28;19924;-81
2022/08/21 03:38:03;;;;;;;;;;;;;;;;;;5099032;28;19938;-80
2022/08/21 03:40:30;;;;;;;;;;;;;;;;;;5098056;28;19967;-80
2022/08/21 03:42:58;;;;;;;;;;;;;;;;;;5098292;28;19924;-82
2022/08/21 03:45:25;;;;;;;;;;;;;;;;;;5099135;28;19970;-82
2022/08/21 03:47:53;;;;;;;;;;;;;;;;;;5103450;28;20016;-83
2022/08/21 03:50:20;;;;;;;;;;;;;;;;;;5105934;28;19928;-80
2022/08/21 03:52:46;;;;;;;;;;;;;;;;;;5105664;28;20306;-81
2022/08/21 03:55:13;;;;;;;;;;;;;;;;;;5104665;28;20014;-82
2022/08/21 03:57:39;;;;;;;;;;;;;;;;;;5099801;28;19988;-79
2022/08/21 04:00:09;;;;;;;;;;;;;;;;;;5107066;28;19928;-80
2022/08/21 04:02:36;;;;;;;;;;;;;;;;;;5098391;28;19963;-79
2022/08/21 04:05:02;;;;;;;;;;;;;;;;;;5099803;28;19924;-81
2022/08/21 04:07:29;;;;;;;;;;;;;;;;;;5101110;28;19928;-81
2022/08/21 04:09:55;;;;;;;;;;;;;;;;;;5101131;28;19966;-81
2022/08/21 04:12:22;;;;;;;;;;;;;;;;;;5102223;28;19928;-80
2022/08/21 04:14:49;;;;;;;;;;;;;;;;;;5110726;28;19924;-81
2022/08/21 04:17:20;;;;;;;;;;;;;;;;;;5117867;28;19924;-81
2022/08/21 04:19:49;;;;;;;;;;;;;;;;;;5114217;28;19980;-80
2022/08/21 04:22:16;;;;;;;;;;;;;;;;;;5112693;28;20017;-80
2022/08/21 04:24:42;;;;;;;;;;;;;;;;;;5110524;28;19924;-80
2022/08/21 04:27:09;;;;;;;;;;;;;;;;;;5110098;28;19935;-80
2022/08/21 04:29:39;;;;;;;;;;;;;;;;;;5107975;28;19928;-82
2022/08/21 04:32:05;;;;;;;;;;;;;;;;;;5098485;28;19971;-80
2022/08/21 04:34:33;;;;;;;;;;;;;;;;;;5109535;28;20436;-80
2022/08/21 04:37:00;;;;;;;;;;;;;;;;;;5109962;28;19967;-80
2022/08/21 04:39:26;;;;;;;;;;;;;;;;;;5109655;28;19924;-80
2022/08/21 04:41:53;;;;;;;;;;;;;;;;;;5108705;28;20343;-80
2022/08/21 04:44:19;;;;;;;;;;;;;;;;;;5107654;28;20011;-80
2022/08/21 04:46:46;;;;;;;;;;;;;;;;;;5100624;28;20007;-79
2022/08/21 04:49:13;;;;;;;;;;;;;;;;;;5098275;28;20015;-79
2022/08/21 04:51:41;;;;;;;;;;;;;;;;;;5099740;28;20015;-80
2022/08/21 04:54:10;;;;;;;;;;;;;;;;;;5098923;28;20019;-82
2022/08/21 04:56:38;;;;;;;;;;;;;;;;;;5092752;22;19925;-75
2022/08/21 04:59:06;;;;;;;;;;;;;;;;;;5072598;28;19929;-76
2022/08/21 05:01:34;;;;;;;;;;;;;;;;;;5072356;28;19930;-76
2022/08/21 05:04:01;;;;;;;;;;;;;;;;;;5072743;28;19930;-75
2022/08/21 05:06:29;;;;;;;;;;;;;;;;;;5061089;28;19925;-76
2022/08/21 05:08:57;;;;;;;;;;;;;;;;;;5052810;28;19931;-74
2022/08/21 05:11:24;;;;;;;;;;;;;;;;;;5052603;28;19933;-76
2022/08/21 05:13:50;;;;;;;;;;;;;;;;;;5052962;28;19924;-76
2022/08/21 05:16:17;;;;;;;;;;;;;;;;;;5052825;28;20016;-75
2022/08/21 05:18:44;;;;;;;;;;;;;;;;;;5052776;28;19929;-76
2022/08/21 05:21:10;;;;;;;;;;;;;;;;;;5052125;28;20031;-75
2022/08/21 05:23:37;;;;;;;;;;;;;;;;;;5052690;28;19931;-76
2022/08/21 05:26:05;;;;;;;;;;;;;;;;;;5052597;28;20021;-74
2022/08/21 05:28:31;;;;;;;;;;;;;;;;;;5052408;28;19924;-75
2022/08/21 05:30:58;;;;;;;;;;;;;;;;;;5052398;28;19925;-75
2022/08/21 05:33:24;;;;;;;;;;;;;;;;;;5053631;28;20031;-75
2022/08/21 05:35:51;;;;;;;;;;;;;;;;;;5052460;28;19967;-76
2022/08/21 05:38:18;;;;;;;;;;;;;;;;;;5052301;28;20379;-75
2022/08/21 05:40:45;;;;;;;;;;;;;;;;;;5051845;28;20453;-74
2022/08/21 05:43:13;;;;;;;;;;;;;;;;;;5052197;28;20446;-76
2022/08/21 05:45:39;;;;;;;;;;;;;;;;;;5052356;28;19931;-77
2022/08/21 05:48:06;;;;;;;;;;;;;;;;;;5052894;28;20031;-76
2022/08/21 05:50:33;;;;;;;;;;;;;;;;;;5054074;28;19980;-76
2022/08/21 05:52:59;;;;;;;;;;;;;;;;;;5053099;28;19933;-75
2022/08/21 05:55:26;;;;;;;;;;;;;;;;;;5052888;28;19964;-76
2022/08/21 05:57:52;;;;;;;;;;;;;;;;;;5052806;28;20003;-76
2022/08/21 06:00:22;;;;;;;;;;;;;;;;;;5052298;28;19978;-78
2022/08/21 06:02:49;;;;;;;;;;;;;;;;;;5054964;28;19924;-78
2022/08/21 06:05:16;;;;;;;;;;;;;;;;;;5052663;28;19924;-76
2022/08/21 06:07:42;;;;;;;;;;;;;;;;;;5054486;28;20011;-76
2022/08/21 06:10:09;;;;;;;;;;;;;;;;;;5053475;28;19979;-77
2022/08/21 06:12:35;;;;;;;;;;;;;;;;;;5055062;28;19935;-77
2022/08/21 06:15:01;;;;;;;;;;;;;;;;;;5056390;28;20004;-77
2022/08/21 06:17:29;;;;;;;;;;;;;;;;;;5056980;28;19925;-77
2022/08/21 06:19:56;;;;;;;;;;;;;;;;;;5056260;28;19925;-78
2022/08/21 06:22:22;;;;;;;;;;;;;;;;;;5056891;28;19924;-76
2022/08/21 06:24:49;;;;;;;;;;;;;;;;;;5056629;28;20012;-77
2022/08/21 06:27:17;;;;;;;;;;;;;;;;;;5056154;28;20378;-76
2022/08/21 06:29:44;;;;;;;;;;;;;;;;;;5057497;28;19925;-76
2022/08/21 06:32:11;;;;;;;;;;;;;;;;;;5058652;28;19925;-75
2022/08/21 06:34:39;;;;;;;;;;;;;;;;;;5059517;28;20015;-76
2022/08/21 06:37:06;;;;;;;;;;;;;;;;;;5058947;28;20406;-75
2022/08/21 06:39:33;;;;;;;;;;;;;;;;;;5057298;28;20004;-77
2022/08/21 06:41:59;;;;;;;;;;;;;;;;;;5056446;28;19932;-76
2022/08/21 06:44:26;;;;;;;;;;;;;;;;;;5055888;28;19925;-77
2022/08/21 06:46:52;;;;;;;;;;;;;;;;;;5056099;28;20294;-76
2022/08/21 06:49:18;;;;;;;;;;;;;;;;;;5055783;28;19968;-77
2022/08/21 06:51:46;;;;;;;;;;;;;;;;;;5055648;28;19928;-76
2022/08/21 06:54:13;;;;;;;;;;;;;;;;;;5057859;28;20011;-75
2022/08/21 06:56:39;;;;;;;;;;;;;;;;;;5056231;28;19924;-77
2022/08/21 06:59:06;;;;;;;;;;;;;;;;;;5056324;28;20552;-78
2022/08/21 07:01:32;;;;;;;;;;;;;;;;;;5056875;28;20016;-76
2022/08/21 07:03:59;;;;;;;;;;;;;;;;;;5057344;28;20432;-78
2022/08/21 07:06:26;;;;;;;;;;;;;;;;;;5055809;28;19929;-78
2022/08/21 07:08:53;;;;;;;;;;;;;;;;;;5057243;28;19978;-77
2022/08/21 07:11:21;;;;;;;;;;;;;;;;;;5056957;28;19947;-77
2022/08/21 07:13:48;;;;;;;;;;;;;;;;;;5056462;28;19928;-77
2022/08/21 07:16:14;;;;;;;;;;;;;;;;;;5056406;28;19929;-77
2022/08/21 07:18:41;;;;;;;;;;;;;;;;;;5055845;28;20011;-75
2022/08/21 07:21:08;;;;;;;;;;;;;;;;;;5055989;28;19925;-75
2022/08/21 07:23:35;;;;;;;;;;;;;;;;;;5057655;28;19931;-77
2022/08/21 07:26:04;;;;;;;;;;;;;;;;;;5055485;28;19931;-77
2022/08/21 07:28:30;;;;;;;;;;;;;;;;;;5056324;28;19931;-76
2022/08/21 07:30:58;;;;;;;;;;;;;;;;;;5055192;28;19972;-77
2022/08/21 07:33:25;;;;;;;;;;;;;;;;;;5056379;28;19952;-77
2022/08/21 07:35:52;;;;;;;;;;;;;;;;;;5056037;28;19931;-77
2022/08/21 07:38:18;;;;;;;;;;;;;;;;;;5056619;28;19984;-76
2022/08/21 07:40:45;;;;;;;;;;;;;;;;;;5057651;28;19943;-77
2022/08/21 07:43:14;;;;;;;;;;;;;;;;;;5058356;28;20016;-76
2022/08/21 07:45:40;;;;;;;;;;;;;;;;;;5058358;28;19925;-76
2022/08/21 07:48:07;;;;;;;;;;;;;;;;;;5065309;28;19925;-77
2022/08/21 07:50:33;;;;;;;;;;;;;;;;;;5063272;28;19929;-77
2022/08/21 07:52:59;;;;;;;;;;;;;;;;;;5063166;28;20019;-78
2022/08/21 07:55:26;;;;;;;;;;;;;;;;;;5064391;28;20426;-76
2022/08/21 07:57:52;;;;;;;;;;;;;;;;;;5059534;28;20443;-77
2022/08/21 08:00:21;;;;;;;;;;;;;;;;;;5057041;28;19968;-78
2022/08/21 08:02:50;;;;;;;;;;;;;;;;;;5059880;28;19932;-77
2022/08/21 08:05:17;;;;;;;;;;;;;;;;;;5057854;28;19929;-76
2022/08/21 08:07:43;;;;;;;;;;;;;;;;;;5055629;28;19925;-77
2022/08/21 08:10:11;;;;;;;;;;;;;;;;;;5056486;28;19967;-76
2022/08/21 08:12:38;;;;;;;;;;;;;;;;;;5059054;28;19980;-77
2022/08/21 08:15:06;;;;;;;;;;;;;;;;;;5057266;28;20131;-77
2022/08/21 08:17:34;;;;;;;;;;;;;;;;;;5056691;28;19931;-75
2022/08/21 08:20:02;;;;;;;;;;;;;;;;;;5054502;28;20027;-77
2022/08/21 08:22:28;;;;;;;;;;;;;;;;;;5054846;28;19933;-77
2022/08/21 08:24:55;;;;;;;;;;;;;;;;;;5055242;28;19925;-77
2022/08/21 08:27:22;;;;;;;;;;;;;;;;;;5054296;28;20000;-77
2022/08/21 08:29:48;;;;;;;;;;;;;;;;;;5054203;28;19931;-76
2022/08/21 08:32:15;;;;;;;;;;;;;;;;;;5054418;28;19931;-77
2022/08/21 08:34:43;;;;;;;;;;;;;;;;;;5054266;28;19925;-75
2022/08/21 08:37:10;;;;;;;;;;;;;;;;;;5054447;28;19925;-77
2022/08/21 08:39:36;;;;;;;;;;;;;;;;;;5055069;28;19978;-77
2022/08/21 08:42:05;;;;;;;;;;;;;;;;;;5054797;28;20016;-77
2022/08/21 08:44:32;;;;;;;;;;;;;;;;;;5054993;28;19932;-77
2022/08/21 08:47:00;;;;;;;;;;;;;;;;;;5054080;28;20035;-77
2022/08/21 08:49:30;;;;;;;;;;;;;;;;;;5054171;28;20015;-76
2022/08/21 08:52:01;;;;;;;;;;;;;;;;;;5054810;28;19929;-76
2022/08/21 08:54:31;;;;;;;;;;;;;;;;;;5054305;28;19928;-77
2022/08/21 08:56:58;;;;;;;;;;;;;;;;;;5052856;28;19951;-76
2022/08/21 08:59:27;;;;;;;;;;;;;;;;;;5052908;28;19925;-77
2022/08/21 09:01:53;;;;;;;;;;;;;;;;;;5052871;28;19931;-75
2022/08/21 09:04:23;;;;;;;;;;;;;;;;;;5053196;28;19929;-75
2022/08/21 09:07:07;;;;;;;;;;;;;;;;;;5053031;28;19925;-77
2022/08/21 09:09:40;;;;;;;;;;;;;;;;;;5053471;28;19931;-76
2022/08/21 09:12:10;;;;;;;;;;;;;;;;;;5054222;28;19929;-75
2022/08/21 09:14:47;;;;;;;;;;;;;;;;;;5054186;28;19939;-76
2022/08/21 09:17:19;;;;;;;;;;;;;;;;;;5054314;28;19925;-76
2022/08/21 09:19:51;;;;;;;;;;;;;;;;;;5053858;28;20020;-77
2022/08/21 09:22:24;;;;;;;;;;;;;;;;;;5053670;28;19980;-77
2022/08/21 09:24:56;;;;;;;;;;;;;;;;;;5054395;28;19925;-77
2022/08/21 09:27:23;;;;;;;;;;;;;;;;;;5054131;28;19924;-77
2022/08/21 09:29:51;;;;;;;;;;;;;;;;;;5053921;28;19931;-76
2022/08/21 09:32:19;;;;;;;;;;;;;;;;;;5053771;28;20421;-77
2022/08/21 09:34:56;;;;;;;;;;;;;;;;;;5053841;28;20427;-76
2022/08/21 09:37:22;;;;;;;;;;;;;;;;;;5053345;28;20015;-77
2022/08/21 09:39:48;;;;;;;;;;;;;;;;;;5053562;28;19924;-77
2022/08/21 09:42:23;;;;;;;;;;;;;;;;;;5053748;28;20011;-77
2022/08/21 09:44:49;;;;;;;;;;;;;;;;;;5054030;28;19925;-77
2022/08/21 09:47:20;;;;;;;;;;;;;;;;;;5053500;28;19972;-77
2022/08/21 09:49:46;;;;;;;;;;;;;;;;;;5053173;28;19925;-77
2022/08/21 09:52:17;;;;;;;;;;;;;;;;;;5053728;28;20019;-77
2022/08/21 09:54:45;;;;;;;;;;;;;;;;;;5053655;28;19925;-77
2022/08/21 10:00:08;;;;;;;;;;;;;;;;;;5053434;28;20553;-77
2022/08/21 10:02:36;;;;;;;;;;;;;;;;;;5053623;28;19935;-75
2022/08/21 10:05:07;;;;;;;;;;;;;;;;;;5053899;28;19933;-77
2022/08/21 10:07:37;;;;;;;;;;;;;;;;;;5053701;28;20011;-75
2022/08/21 10:10:05;;;;;;;;;;;;;;;;;;5062850;28;19975;-77
2022/08/21 10:12:36;;;;;;;;;;;;;;;;;;5054939;28;19968;-77
2022/08/21 10:15:10;;;;;;;;;;;;;;;;;;5054845;28;19928;-76
2022/08/21 10:17:39;;;;;;;;;;;;;;;;;;5054610;28;19967;-77
2022/08/21 10:20:08;;;;;;;;;;;;;;;;;;5053919;28;19982;-76
2022/08/21 10:22:39;;;;;;;;;;;;;;;;;;5054402;28;19968;-77
2022/08/21 10:25:10;;;;;;;;;;;;;;;;;;5054192;28;20013;-76
2022/08/21 10:27:40;;;;;;;;;;;;;;;;;;5053920;28;20015;-77
2022/08/21 10:30:10;;;;;;;;;;;;;;;;;;5053654;28;20372;-77
2022/08/21 10:32:42;;;;;;;;;;;;;;;;;;5053344;28;20015;-77
2022/08/21 10:35:12;;;;;;;;;;;;;;;;;;5053681;28;20370;-77
2022/08/21 10:37:43;;;;;;;;;;;;;;;;;;5053356;28;19972;-77
2022/08/21 10:40:14;;;;;;;;;;;;;;;;;;5053186;28;20012;-76
2022/08/21 10:42:49;;;;;;;;;;;;;;;;;;5053483;28;19931;-77
2022/08/21 10:45:23;;;;;;;;;;;;;;;;;;5053184;28;20302;-76
2022/08/21 10:47:51;;;;;;;;;;;;;;;;;;5053758;28;19925;-76
2022/08/21 10:50:23;;;;;;;;;;;;;;;;;;5053876;28;20006;-76
2022/08/21 10:53:02;;;;;;;;;;;;;;;;;;5053286;28;19994;-77
2022/08/21 10:55:35;;;;;;;;;;;;;;;;;;5066141;22;20016;-83
2022/08/21 10:58:05;;;;;;;;;;;;;;;;;;5038430;28;19925;-82
2022/08/21 11:00:34;;;;;;;;;;;;;;;;;;5044997;28;19931;-82
2022/08/21 11:03:05;;;;;;;;;;;;;;;;;;5064876;28;19935;-82
2022/08/21 11:05:33;;;;;;;;;;;;;;;;;;5062032;28;19925;-82
2022/08/21 11:08:04;;;;;;;;;;;;;;;;;;5041242;28;19983;-80
2022/08/21 11:10:34;;;;;;;;;;;;;;;;;;5038705;28;19972;-82
2022/08/21 11:13:02;;;;;;;;;;;;;;;;;;5038800;28;20019;-81
2022/08/21 11:15:37;;;;;;;;;;;;;;;;;;5037903;28;19932;-84
2022/08/21 11:18:10;;;;;;;;;;;;;;;;;;5043444;28;19975;-83
2022/08/21 11:20:40;;;;;;;;;;;;;;;;;;5041748;28;19983;-81
2022/08/21 11:23:09;;;;;;;;;;;;;;;;;;5039690;28;19925;-82
2022/08/21 11:25:38;;;;;;;;;;;;;;;;;;5041097;28;20369;-82
2022/08/21 11:28:08;;;;;;;;;;;;;;;;;;5042519;28;20008;-82
2022/08/21 11:30:41;;;;;;;;;;;;;;;;;;5041710;28;19937;-83
2022/08/21 11:33:15;;;;;;;;;;;;;;;;;;5042810;28;19979;-82
2022/08/21 11:35:46;;;;;;;;;;;;;;;;;;5040754;28;19986;-80
2022/08/21 11:38:28;;;;;;;;;;;;;;;;;;5037317;28;20008;-83
2022/08/21 11:41:02;;;;;;;;;;;;;;;;;;5032820;28;19931;-83
2022/08/21 11:43:33;;;;;;;;;;;;;;;;;;5037275;28;20388;-82
2022/08/21 11:46:07;;;;;;;;;;;;;;;;;;5036704;28;19968;-82
2022/08/21 11:48:45;;;;;;;;;;;;;;;;;;5037278;28;20019;-82
2022/08/21 11:51:13;;;;;;;;;;;;;;;;;;5036854;28;20011;-81
2022/08/21 11:53:44;;;;;;;;;;;;;;;;;;5037081;28;19976;-80
2022/08/21 11:56:12;;;;;;;;;;;;;;;;;;5042411;28;19931;-81
2022/08/21 11:58:40;;;;;;;;;;;;;;;;;;5050851;28;19925;-81
2022/08/21 12:01:10;;;;;;;;;;;;;;;;;;5049749;28;19928;-81
2022/08/21 12:03:38;;;;;;;;;;;;;;;;;;5048671;28;19972;-83
2022/08/21 12:06:06;;;;;;;;;;;;;;;;;;5037709;28;19975;-82
2022/08/21 12:08:34;;;;;;;;;;;;;;;;;;5037586;28;20434;-84
2022/08/21 12:11:01;;;;;;;;;;;;;;;;;;5036306;28;20008;-83
2022/08/21 12:13:30;;;;;;;;;;;;;;;;;;5036498;28;20028;-82
2022/08/21 12:16:05;;;;;;;;;;;;;;;;;;5036990;28;19929;-83
2022/08/21 12:18:33;;;;;;;;;;;;;;;;;;5037246;28;19968;-82
2022/08/21 12:21:03;;;;;;;;;;;;;;;;;;5039696;28;19948;-83
2022/08/21 12:23:30;;;;;;;;;;;;;;;;;;5043811;28;19933;-83
2022/08/21 12:26:02;;;;;;;;;;;;;;;;;;5047420;28;19929;-81
2022/08/21 12:28:30;;;;;;;;;;;;;;;;;;5050014;28;20443;-81
2022/08/21 12:30:57;;;;;;;;;;;;;;;;;;5050780;28;20312;-81
2022/08/21 12:33:26;;;;;;;;;;;;;;;;;;5050033;28;20295;-81
2022/08/21 12:36:02;;;;;;;;;;;;;;;;;;5048481;28;20466;-82
2022/08/21 12:38:29;;;;;;;;;;;;;;;;;;5048931;28;19926;-81
2022/08/21 12:40:57;;;;;;;;;;;;;;;;;;5048438;28;19925;-82
2022/08/21 12:43:26;;;;;;;;;;;;;;;;;;5046551;28;19932;-81
2022/08/21 12:45:52;;;;;;;;;;;;;;;;;;5046404;28;19925;-81
2022/08/21 12:48:21;;;;;;;;;;;;;;;;;;5046894;28;19936;-81
2022/08/21 12:50:50;;;;;;;;;;;;;;;;;;5047831;28;19968;-81
2022/08/21 12:53:22;;;;;;;;;;;;;;;;;;5048585;28;19925;-81
2022/08/21 12:55:49;;;;;;;;;;;;;;;;;;5044358;28;20443;-82
2022/08/21 12:58:19;;;;;;;;;;;;;;;;;;5035979;28;19925;-82
2022/08/21 13:00:49;;;;;;;;;;;;;;;;;;5037154;28;19964;-82
2022/08/21 13:03:16;;;;;;;;;;;;;;;;;;5037561;28;20395;-84
2022/08/21 13:05:43;;;;;;;;;;;;;;;;;;5040641;28;19925;-84
2022/08/21 13:08:11;;;;;;;;;;;;;;;;;;5041129;28;19997;-82
2022/08/21 13:10:40;;;;;;;;;;;;;;;;;;5040885;28;20016;-84
2022/08/21 13:13:08;;;;;;;;;;;;;;;;;;5048544;28;19925;-82
2022/08/21 13:15:36;;;;;;;;;;;;;;;;;;5049792;28;19925;-82
2022/08/21 13:18:03;;;;;;;;;;;;;;;;;;5050749;28;20433;-82
2022/08/21 13:20:31;;;;;;;;;;;;;;;;;;5049630;28;19968;-81
2022/08/21 13:22:58;;;;;;;;;;;;;;;;;;5042207;28;19925;-82
2022/08/21 13:25:26;;;;;;;;;;;;;;;;;;5039654;28;19924;-83
2022/08/21 13:28:02;;;;;;;;;;;;;;;;;;5035794;28;20004;-82
2022/08/21 13:30:30;;;;;;;;;;;;;;;;;;5035372;28;20029;-82
2022/08/21 13:32:58;;;;;;;;;;;;;;;;;;5035381;28;20683;-82
2022/08/21 13:35:26;;;;;;;;;;;;;;;;;;5035773;28;19971;-82
2022/08/21 13:37:52;;;;;;;;;;;;;;;;;;5040681;28;19925;-82
2022/08/21 13:40:23;;;;;;;;;;;;;;;;;;5040829;28;20012;-82
2022/08/21 13:42:51;;;;;;;;;;;;;;;;;;5040765;28;20405;-83
2022/08/21 13:45:24;;;;;;;;;;;;;;;;;;5040417;28;19983;-83
2022/08/21 13:47:52;;;;;;;;;;;;;;;;;;5049374;28;19925;-81
2022/08/21 13:50:20;;;;;;;;;;;;;;;;;;5051128;28;19921;-81
2022/08/21 13:52:55;;;;;;;;;;;;;;;;;;5041820;28;20000;-82
2022/08/21 13:55:22;;;;;;;;;;;;;;;;;;5038102;28;19980;-83
2022/08/21 13:57:48;;;;;;;;;;;;;;;;;;5040648;28;19972;-83
2022/08/21 14:00:18;;;;;;;;;;;;;;;;;;5040541;28;19969;-82
2022/08/21 14:02:48;;;;;;;;;;;;;;;;;;5036041;28;20392;-81
2022/08/21 14:05:17;;;;;;;;;;;;;;;;;;5036934;28;19937;-83
2022/08/21 14:07:44;;;;;;;;;;;;;;;;;;5035142;28;19929;-82
2022/08/21 14:10:13;;;;;;;;;;;;;;;;;;5034730;28;20016;-82
2022/08/21 14:12:42;;;;;;;;;;;;;;;;;;5054697;28;19920;-79
2022/08/21 14:15:10;;;;;;;;;;;;;;;;;;5057179;28;19909;-80
2022/08/21 14:17:39;;;;;;;;;;;;;;;;;;5050245;28;19925;-84
2022/08/21 14:20:08;;;;;;;;;;;;;;;;;;5044991;28;19926;-81
2022/08/21 14:22:38;;;;;;;;;;;;;;;;;;5046179;28;19964;-82
2022/08/21 14:25:06;;;;;;;;;;;;;;;;;;5044787;28;20424;-81
2022/08/21 14:27:32;;;;;;;;;;;;;;;;;;5043319;28;19927;-81
2022/08/21 14:30:01;;;;;;;;;;;;;;;;;;5041597;28;19925;-83
2022/08/21 14:32:29;;;;;;;;;;;;;;;;;;5036598;28;19925;-82
2022/08/21 14:34:56;;;;;;;;;;;;;;;;;;5041897;28;19948;-85
2022/08/21 14:37:25;;;;;;;;;;;;;;;;;;5041091;28;19979;-83
2022/08/21 14:39:51;;;;;;;;;;;;;;;;;;5046188;28;20387;-83
2022/08/21 14:42:18;;;;;;;;;;;;;;;;;;5044943;28;19929;-82
2022/08/21 14:44:45;;;;;;;;;;;;;;;;;;5044554;28;20015;-84
2022/08/21 14:47:11;;;;;;;;;;;;;;;;;;5046104;28;19932;-85
2022/08/21 14:49:38;;;;;;;;;;;;;;;;;;5044516;28;19988;-85
2022/08/21 14:52:05;;;;;;;;;;;;;;;;;;5042964;28;19925;-82
2022/08/21 14:54:32;;;;;;;;;;;;;;;;;;5048083;28;20377;-82
2022/08/21 14:57:00;;;;;;;;;;;;;;;;;;5046846;28;19964;-84
2022/08/21 14:59:26;;;;;;;;;;;;;;;;;;5045251;28;19925;-84
2022/08/21 15:01:53;;;;;;;;;;;;;;;;;;5045996;28;19925;-83
2022/08/21 15:04:19;;;;;;;;;;;;;;;;;;5044147;28;19925;-83
2022/08/21 15:06:46;;;;;;;;;;;;;;;;;;5045622;28;19972;-81
2022/08/21 15:09:12;;;;;;;;;;;;;;;;;;5046533;28;20008;-80
2022/08/21 15:11:40;;;;;;;;;;;;;;;;;;5046130;28;20027;-83
2022/08/21 15:14:08;;;;;;;;;;;;;;;;;;5049308;28;19920;-80
2022/08/21 15:16:36;;;;;;;;;;;;;;;;;;5057770;28;19925;-79
2022/08/21 15:19:02;;;;;;;;;;;;;;;;;;5051801;28;19929;-80
2022/08/21 15:21:29;;;;;;;;;;;;;;;;;;5047528;28;19955;-79
2022/08/21 15:23:55;;;;;;;;;;;;;;;;;;5054037;28;19932;-81
2022/08/21 15:26:22;;;;;;;;;;;;;;;;;;5043497;28;19960;-84
2022/08/21 15:28:50;;;;;;;;;;;;;;;;;;5039660;28;19929;-84
2022/08/21 15:31:17;;;;;;;;;;;;;;;;;;5042552;28;19960;-82
2022/08/21 15:33:43;;;;;;;;;;;;;;;;;;5042872;28;19925;-83
2022/08/21 15:36:09;;;;;;;;;;;;;;;;;;5042629;28;19972;-83
2022/08/21 15:38:36;;;;;;;;;;;;;;;;;;5042765;28;20019;-83
2022/08/21 15:41:03;;;;;;;;;;;;;;;;;;5041533;28;20020;-82
2022/08/21 15:43:30;;;;;;;;;;;;;;;;;;5041569;28;19925;-82
2022/08/21 15:45:59;;;;;;;;;;;;;;;;;;5041979;28;19960;-83
2022/08/21 15:48:25;;;;;;;;;;;;;;;;;;5042974;28;19925;-83
2022/08/21 15:50:52;;;;;;;;;;;;;;;;;;5043195;28;19925;-82
2022/08/21 15:53:18;;;;;;;;;;;;;;;;;;5043107;28;19929;-85
2022/08/21 15:55:45;;;;;;;;;;;;;;;;;;5038128;28;20012;-84
2022/08/21 15:58:15;;;;;;;;;;;;;;;;;;5038873;28;19964;-83
2022/08/21 16:00:46;;;;;;;;;;;;;;;;;;5038341;28;19925;-80
2022/08/21 16:03:16;;;;;;;;;;;;;;;;;;5039180;28;20384;-80
2022/08/21 16:05:43;;;;;;;;;;;;;;;;;;5042306;28;19925;-81
2022/08/21 16:08:10;;;;;;;;;;;;;;;;;;5039821;28;19963;-82
2022/08/21 16:10:38;;;;;;;;;;;;;;;;;;5048562;28;19924;-81
2022/08/21 16:13:05;;;;;;;;;;;;;;;;;;5044598;28;20339;-81
2022/08/21 16:15:32;;;;;;;;;;;;;;;;;;5046134;28;19929;-81
2022/08/21 16:17:59;;;;;;;;;;;;;;;;;;5048615;28;20204;-82
2022/08/21 16:20:28;;;;;;;;;;;;;;;;;;5037049;28;19933;-80
2022/08/21 16:22:55;;;;;;;;;;;;;;;;;;5034629;28;19967;-80
2022/08/21 16:25:22;;;;;;;;;;;;;;;;;;5034332;28;20021;-80
2022/08/21 16:27:50;;;;;;;;;;;;;;;;;;5035883;28;19948;-80
2022/08/21 16:30:17;;;;;;;;;;;;;;;;;;5035582;28;19933;-83
2022/08/21 16:32:45;;;;;;;;;;;;;;;;;;5036676;28;20384;-81
2022/08/21 16:35:13;;;;;;;;;;;;;;;;;;5037750;28;20005;-82
2022/08/21 16:37:41;;;;;;;;;;;;;;;;;;5036966;28;19929;-83
2022/08/21 16:40:09;;;;;;;;;;;;;;;;;;5033763;28;20299;-84
2022/08/21 16:42:36;;;;;;;;;;;;;;;;;;5041834;28;20009;-82
2022/08/21 16:45:04;;;;;;;;;;;;;;;;;;5039153;28;19924;-83
2022/08/21 16:47:31;;;;;;;;;;;;;;;;;;5037164;28;20320;-82
2022/08/21 16:49:57;;;;;;;;;;;;;;;;;;5037906;28;19925;-82
2022/08/21 16:52:24;;;;;;;;;;;;;;;;;;5037468;28;20410;-84
2022/08/21 16:54:52;;;;;;;;;;;;;;;;;;5039074;28;20359;-82